createdAt,value
2019-03-22T00:00:17.422Z,8.47
2019-03-22T00:02:45.697Z,12.13
2019-03-22T00:05:14.518Z,10.23
2019-03-22T00:07:43.362Z,10.50
2019-03-22T00:10:11.619Z,11.27
2019-03-22T00:12:40.448Z,10.97
2019-03-22T00:15:08.769Z,10.20
2019-03-22T00:17:37.042Z,11.77
2019-03-22T00:20:06.941Z,9.90
2019-03-22T00:22:35.756Z,7.40
2019-03-22T00:25:06.821Z,9.60
2019-03-22T00:27:35.077Z,8.13
2019-03-22T00:30:06.336Z,8.50
2019-03-22T00:32:34.604Z,10.57
2019-03-22T00:35:03.030Z,8.80
2019-03-22T00:37:31.282Z,10.10
2019-03-22T00:39:59.548Z,8.03
2019-03-22T00:42:27.802Z,11.73
2019-03-22T00:44:56.073Z,10.27
2019-03-22T00:47:24.317Z,7.00
2019-03-22T00:49:52.584Z,6.27
2019-03-22T00:52:20.838Z,9.17
2019-03-22T00:54:49.105Z,7.83
2019-03-22T00:57:27.748Z,9.03
2019-03-22T00:59:47.354Z,6.27
2019-03-22T01:02:15.602Z,7.60
2019-03-22T01:04:44.433Z,7.17
2019-03-22T01:07:12.849Z,6.50
2019-03-22T01:09:41.115Z,7.17
2019-03-22T01:12:09.369Z,7.97
2019-03-22T01:14:37.634Z,5.10
2019-03-22T01:17:05.901Z,6.80
2019-03-22T01:19:34.193Z,6.43
2019-03-22T01:22:02.445Z,9.23
2019-03-22T01:24:30.693Z,7.03
2019-03-22T01:26:58.961Z,6.90
2019-03-22T01:29:27.215Z,8.70
2019-03-22T01:31:56.050Z,7.93
2019-03-22T01:34:24.317Z,7.13
2019-03-22T01:36:52.638Z,6.83
2019-03-22T01:39:20.890Z,6.80
2019-03-22T01:41:49.154Z,6.27
2019-03-22T01:44:17.417Z,4.73
2019-03-22T01:46:45.681Z,5.33
2019-03-22T01:49:13.937Z,7.03
2019-03-22T01:51:42.742Z,6.63
2019-03-22T01:54:10.999Z,5.77
2019-03-22T01:56:39.265Z,5.17
2019-03-22T01:59:07.514Z,6.17
2019-03-22T02:01:35.773Z,6.83
2019-03-22T02:04:04.031Z,5.33
2019-03-22T02:06:32.292Z,6.37
2019-03-22T02:09:00.552Z,7.20
2019-03-22T02:11:28.817Z,5.80
2019-03-22T02:13:57.155Z,6.93
2019-03-22T02:16:25.409Z,4.80
2019-03-22T02:18:53.661Z,6.60
2019-03-22T02:21:21.929Z,6.27
2019-03-22T02:23:52.092Z,4.07
2019-03-22T02:26:20.838Z,5.10
2019-03-22T02:28:49.102Z,5.43
2019-03-22T02:31:17.361Z,6.53
2019-03-22T02:33:45.627Z,6.63
2019-03-22T02:36:14.928Z,7.07
2019-03-22T02:38:43.178Z,4.83
2019-03-22T02:41:11.505Z,5.47
2019-03-22T02:43:39.796Z,6.87
2019-03-22T02:46:08.056Z,8.03
2019-03-22T02:48:36.354Z,4.63
2019-03-22T02:51:04.602Z,4.30
2019-03-22T02:53:32.865Z,6.83
2019-03-22T02:56:01.230Z,5.30
2019-03-22T02:58:29.686Z,5.80
2019-03-22T03:00:57.930Z,3.83
2019-03-22T03:03:26.195Z,5.47
2019-03-22T03:05:54.446Z,4.73
2019-03-22T03:08:22.710Z,4.43
2019-03-22T03:10:50.965Z,5.17
2019-03-22T03:13:19.226Z,5.83
2019-03-22T03:15:47.485Z,4.20
2019-03-22T03:18:15.744Z,6.73
2019-03-22T03:20:44.459Z,5.40
2019-03-22T03:23:12.731Z,4.00
2019-03-22T03:25:41.554Z,5.67
2019-03-22T03:28:09.831Z,4.50
2019-03-22T03:30:38.083Z,3.30
2019-03-22T03:33:06.366Z,5.70
2019-03-22T03:35:34.694Z,4.30
2019-03-22T03:38:02.956Z,4.27
2019-03-22T03:40:31.282Z,3.57
2019-03-22T03:42:59.554Z,7.10
2019-03-22T03:45:35.968Z,3.73
2019-03-22T03:48:10.274Z,4.33
2019-03-22T03:50:38.625Z,4.83
2019-03-22T03:53:07.227Z,3.40
2019-03-22T03:55:35.494Z,4.80
2019-03-22T03:58:05.127Z,5.07
2019-03-22T04:00:33.433Z,3.40
2019-03-22T04:03:01.863Z,5.80
2019-03-22T04:05:30.132Z,4.50
2019-03-22T04:07:58.393Z,7.00
2019-03-22T04:10:26.646Z,4.00
2019-03-22T04:12:54.904Z,6.87
2019-03-22T04:15:23.184Z,4.10
2019-03-22T04:17:51.517Z,4.03
2019-03-22T04:20:20.143Z,4.17
2019-03-22T04:22:48.404Z,2.47
2019-03-22T04:25:16.712Z,4.40
2019-03-22T04:27:45.000Z,3.67
2019-03-22T04:30:13.277Z,2.67
2019-03-22T04:32:41.537Z,4.20
2019-03-22T04:35:09.870Z,3.50
2019-03-22T04:37:38.124Z,3.33
2019-03-22T04:40:27.878Z,5.63
2019-03-22T04:42:56.199Z,3.67
2019-03-22T04:45:25.402Z,4.63
2019-03-22T04:47:59.562Z,4.47
2019-03-22T04:50:28.003Z,3.10
2019-03-22T04:52:56.255Z,4.90
2019-03-22T04:55:25.101Z,3.40
2019-03-22T04:57:53.926Z,4.47
2019-03-22T05:00:22.190Z,3.87
2019-03-22T05:02:50.926Z,4.63
2019-03-22T05:05:19.772Z,2.27
2019-03-22T05:07:48.017Z,3.77
2019-03-22T05:10:16.287Z,3.77
2019-03-22T05:12:44.538Z,2.67
2019-03-22T05:15:13.542Z,2.53
2019-03-22T05:17:42.451Z,4.23
2019-03-22T05:20:10.713Z,2.63
2019-03-22T05:22:38.974Z,2.60
2019-03-22T05:25:07.233Z,3.17
2019-03-22T05:27:35.570Z,3.33
2019-03-22T05:30:05.186Z,2.77
2019-03-22T05:32:33.446Z,3.37
2019-03-22T05:35:01.716Z,2.57
2019-03-22T05:37:29.977Z,2.80
2019-03-22T05:39:58.234Z,2.37
2019-03-22T05:42:26.493Z,3.43
2019-03-22T05:44:54.743Z,3.10
2019-03-22T05:47:23.007Z,3.13
2019-03-22T05:49:51.262Z,2.17
2019-03-22T05:52:19.525Z,3.17
2019-03-22T05:54:47.809Z,4.10
2019-03-22T05:57:16.069Z,2.20
2019-03-22T05:59:44.325Z,2.90
2019-03-22T06:02:12.604Z,2.63
2019-03-22T06:04:40.866Z,5.17
2019-03-22T06:07:09.126Z,3.17
2019-03-22T06:09:37.386Z,3.53
2019-03-22T06:12:05.649Z,2.90
2019-03-22T06:14:33.902Z,4.20
2019-03-22T06:17:02.247Z,3.80
2019-03-22T06:19:30.619Z,9.00
2019-03-22T06:21:59.154Z,6.27
2019-03-22T06:24:27.406Z,4.73
2019-03-22T06:26:55.697Z,4.70
2019-03-22T06:29:23.958Z,4.87
2019-03-22T06:31:52.215Z,2.83
2019-03-22T06:34:20.518Z,5.53
2019-03-22T06:36:48.844Z,7.87
2019-03-22T06:39:17.311Z,14.47
2019-03-22T06:41:45.666Z,5.20
2019-03-22T06:44:13.934Z,5.20
2019-03-22T06:46:42.192Z,4.83
2019-03-22T06:49:10.455Z,10.77
2019-03-22T06:51:38.717Z,8.60
2019-03-22T06:54:06.968Z,9.80
2019-03-22T06:56:35.217Z,9.43
2019-03-22T06:59:03.482Z,9.03
2019-03-22T07:01:31.730Z,5.90
2019-03-22T07:03:59.990Z,5.57
2019-03-22T07:06:28.247Z,4.67
2019-03-22T07:08:56.522Z,4.70
2019-03-22T07:11:24.769Z,2.87
2019-03-22T07:13:53.037Z,8.97
2019-03-22T07:16:21.285Z,5.17
2019-03-22T07:18:49.573Z,5.10
2019-03-22T07:21:17.826Z,6.70
2019-03-22T07:23:46.166Z,16.43
2019-03-22T07:26:14.422Z,14.43
2019-03-22T07:28:42.699Z,15.80
2019-03-22T07:31:10.963Z,33.13
2019-03-22T07:33:39.235Z,36.47
2019-03-22T07:36:07.498Z,36.50
2019-03-22T07:38:35.774Z,37.37
2019-03-22T07:41:04.033Z,34.67
2019-03-22T07:43:32.307Z,30.83
2019-03-22T07:46:00.566Z,35.10
2019-03-22T07:48:28.840Z,29.47
2019-03-22T07:50:57.163Z,33.93
2019-03-22T07:53:25.494Z,34.20
2019-03-22T07:55:53.750Z,29.13
2019-03-22T07:58:22.024Z,37.67
2019-03-22T08:00:50.277Z,38.70
2019-03-22T08:03:18.541Z,31.30
2019-03-22T08:05:51.539Z,39.60
2019-03-22T08:08:16.797Z,39.03
2019-03-22T08:10:45.073Z,40.90
2019-03-22T08:13:13.335Z,40.73
2019-03-22T08:15:41.608Z,34.73
2019-03-22T08:18:09.868Z,38.77
2019-03-22T08:20:38.939Z,37.30
2019-03-22T08:23:22.962Z,38.97
2019-03-22T08:25:51.536Z,40.70
2019-03-22T08:28:19.846Z,35.23
2019-03-22T08:30:48.389Z,36.17
2019-03-22T08:33:16.710Z,39.50
2019-03-22T08:35:44.973Z,37.70
2019-03-22T08:38:13.230Z,37.00
2019-03-22T08:40:44.568Z,35.07
2019-03-22T08:43:13.477Z,38.33
2019-03-22T08:45:41.798Z,42.17
2019-03-22T08:48:10.389Z,36.37
2019-03-22T08:50:38.685Z,43.93
2019-03-22T08:53:06.997Z,42.07
2019-03-22T08:55:35.278Z,35.30
2019-03-22T08:58:03.542Z,46.67
2019-03-22T09:00:39.225Z,37.87
2019-03-22T09:03:01.910Z,35.37
2019-03-22T09:05:33.266Z,32.60
2019-03-22T09:08:01.542Z,36.70
2019-03-22T09:10:29.891Z,41.20
2019-03-22T09:12:58.246Z,42.33
2019-03-22T09:15:26.558Z,36.03
2019-03-22T09:17:54.838Z,31.27
2019-03-22T09:20:23.591Z,30.40
2019-03-22T09:22:51.937Z,38.13
2019-03-22T09:25:20.976Z,36.17
2019-03-22T09:27:49.310Z,35.40
2019-03-22T09:30:17.599Z,31.37
2019-03-22T09:32:45.978Z,32.10
2019-03-22T09:35:14.278Z,33.97
2019-03-22T09:37:43.162Z,29.10
2019-03-22T09:40:11.499Z,30.10
2019-03-22T09:42:39.862Z,48.53
2019-03-22T09:45:09.033Z,30.17
2019-03-22T09:47:37.432Z,32.10
2019-03-22T09:50:11.653Z,33.17
2019-03-22T09:52:39.925Z,36.77
2019-03-22T09:55:13.949Z,32.90
2019-03-22T09:57:38.186Z,31.07
2019-03-22T10:00:18.486Z,29.17
2019-03-22T10:02:46.746Z,33.53
2019-03-22T10:05:15.004Z,32.87
2019-03-22T10:07:43.278Z,25.30
2019-03-22T10:10:11.543Z,24.27
2019-03-22T10:12:39.868Z,28.50
2019-03-22T10:15:08.149Z,29.50
2019-03-22T10:17:36.419Z,25.13
2019-03-22T10:20:06.021Z,30.87
2019-03-22T10:22:34.917Z,21.77
2019-03-22T10:25:04.692Z,28.03
2019-03-22T10:27:33.021Z,26.97
2019-03-22T10:30:01.324Z,19.93
2019-03-22T10:32:29.594Z,23.13
2019-03-22T10:34:57.918Z,23.70
2019-03-22T10:37:26.186Z,18.63
2019-03-22T10:39:54.510Z,24.67
2019-03-22T10:42:22.840Z,21.77
2019-03-22T10:44:51.167Z,21.47
2019-03-22T10:47:19.660Z,26.87
2019-03-22T10:49:47.977Z,21.57
2019-03-22T10:52:16.291Z,24.23
2019-03-22T10:54:44.632Z,20.03
2019-03-22T10:57:12.958Z,23.67
2019-03-22T10:59:41.281Z,24.40
2019-03-22T11:02:09.550Z,20.93
2019-03-22T11:04:37.852Z,23.73
2019-03-22T11:07:07.926Z,24.17
2019-03-22T11:09:36.183Z,21.77
2019-03-22T11:12:12.084Z,21.20
2019-03-22T11:14:35.030Z,17.73
2019-03-22T11:17:03.313Z,16.27
2019-03-22T11:19:31.557Z,17.50
2019-03-22T11:21:59.829Z,18.47
2019-03-22T11:24:28.094Z,18.67
2019-03-22T11:26:56.357Z,14.03
2019-03-22T11:29:24.618Z,15.43
2019-03-22T11:31:52.898Z,17.83
2019-03-22T11:34:21.162Z,18.10
2019-03-22T11:36:49.994Z,18.70
2019-03-22T11:39:18.270Z,20.93
2019-03-22T11:41:47.234Z,15.60
2019-03-22T11:44:15.509Z,19.07
2019-03-22T11:46:43.774Z,21.67
2019-03-22T11:49:12.044Z,17.03
2019-03-22T11:51:40.902Z,19.30
2019-03-22T11:54:09.174Z,16.63
2019-03-22T11:56:37.447Z,22.17
2019-03-22T11:59:05.720Z,26.90
2019-03-22T12:01:33.978Z,16.90
2019-03-22T12:04:02.249Z,21.60
2019-03-22T12:06:30.511Z,21.37
2019-03-22T12:08:58.774Z,19.53
2019-03-22T12:11:27.349Z,17.77
2019-03-22T12:13:55.622Z,22.13
2019-03-22T12:16:23.877Z,18.40
2019-03-22T12:18:52.150Z,22.07
2019-03-22T12:21:20.579Z,17.83
2019-03-22T12:23:48.845Z,19.03
2019-03-22T12:26:17.105Z,21.77
2019-03-22T12:28:45.957Z,23.40
2019-03-22T12:31:14.222Z,15.33
2019-03-22T12:33:42.508Z,22.90
2019-03-22T12:36:10.765Z,25.40
2019-03-22T12:38:39.109Z,19.93
2019-03-22T12:41:07.374Z,18.87
2019-03-22T12:43:35.650Z,21.70
2019-03-22T12:46:03.906Z,21.33
2019-03-22T12:48:32.501Z,17.83
2019-03-22T12:51:00.768Z,16.70
2019-03-22T12:53:29.032Z,17.57
2019-03-22T12:55:57.301Z,18.07
2019-03-22T12:58:25.562Z,17.53
2019-03-22T13:00:54.086Z,23.23
2019-03-22T13:03:24.381Z,19.83
2019-03-22T13:05:53.194Z,21.07
2019-03-22T13:08:21.449Z,25.57
2019-03-22T13:10:49.735Z,26.60
2019-03-22T13:13:17.998Z,29.23
2019-03-22T13:15:46.278Z,23.33
2019-03-22T13:18:14.543Z,21.60
2019-03-22T13:20:42.797Z,21.97
2019-03-22T13:23:11.067Z,23.60
2019-03-22T13:25:39.333Z,21.60
2019-03-22T13:28:07.673Z,23.67
2019-03-22T13:30:36.577Z,27.83
2019-03-22T13:33:05.105Z,29.17
2019-03-22T13:35:33.372Z,27.63
2019-03-22T13:38:01.633Z,22.93
2019-03-22T13:40:29.904Z,18.37
2019-03-22T13:42:58.328Z,21.50
2019-03-22T13:45:26.605Z,21.77
2019-03-22T13:47:54.936Z,22.50
2019-03-22T13:50:23.291Z,22.13
2019-03-22T13:52:51.549Z,22.10
2019-03-22T13:55:19.827Z,20.80
2019-03-22T13:57:48.082Z,25.00
2019-03-22T14:00:18.557Z,20.20
2019-03-22T14:02:46.821Z,20.87
2019-03-22T14:05:15.163Z,21.23
2019-03-22T14:07:43.427Z,23.40
2019-03-22T14:10:17.938Z,18.93
2019-03-22T14:12:46.199Z,19.87
2019-03-22T14:15:14.473Z,16.90
2019-03-22T14:17:42.729Z,21.30
2019-03-22T14:20:11.760Z,19.93
2019-03-22T14:22:40.154Z,15.07
2019-03-22T14:25:08.429Z,16.20
2019-03-22T14:27:36.698Z,21.47
2019-03-22T14:30:07.361Z,18.70
2019-03-22T14:32:35.642Z,21.07
2019-03-22T14:35:06.046Z,18.73
2019-03-22T14:37:34.309Z,16.60
2019-03-22T14:40:02.574Z,17.00
2019-03-22T14:42:30.849Z,15.57
2019-03-22T14:44:59.107Z,16.00
2019-03-22T14:47:27.634Z,17.20
2019-03-22T14:49:55.902Z,14.27
2019-03-22T14:52:24.187Z,14.10
2019-03-22T14:54:52.779Z,12.80
2019-03-22T14:57:21.055Z,15.90
2019-03-22T14:59:58.545Z,15.43
2019-03-22T15:02:19.317Z,14.63
2019-03-22T15:04:47.578Z,12.93
2019-03-22T15:07:19.986Z,16.60
2019-03-22T15:09:46.350Z,16.33
2019-03-22T15:12:14.774Z,16.20
2019-03-22T15:14:47.382Z,18.07
2019-03-22T15:17:22.980Z,14.57
2019-03-22T15:20:07.866Z,14.07
2019-03-22T15:22:40.786Z,13.43
2019-03-22T15:25:13.634Z,13.83
2019-03-22T15:28:00.028Z,14.80
2019-03-22T15:30:48.122Z,12.50
2019-03-22T15:33:20.736Z,14.17
2019-03-22T15:35:56.450Z,14.27
2019-03-22T15:38:42.784Z,15.13
2019-03-22T15:41:11.142Z,12.87
2019-03-22T15:43:39.411Z,10.57
2019-03-22T15:46:07.666Z,12.87
2019-03-22T15:48:36.214Z,13.97
2019-03-22T15:51:04.477Z,11.93
2019-03-22T15:53:32.750Z,11.93
2019-03-22T15:56:01.067Z,12.93
2019-03-22T15:58:29.338Z,11.23
2019-03-22T16:00:57.590Z,12.40
2019-03-22T16:03:25.867Z,14.67
2019-03-22T16:05:54.130Z,12.23
2019-03-22T16:08:22.393Z,9.97
2019-03-22T16:10:50.652Z,13.67
2019-03-22T16:13:18.930Z,12.40
2019-03-22T16:15:47.194Z,12.27
2019-03-22T16:18:15.469Z,12.60
2019-03-22T16:20:43.726Z,12.37
2019-03-22T16:23:12.008Z,12.90
2019-03-22T16:25:40.254Z,12.77
2019-03-22T16:28:08.525Z,10.97
2019-03-22T16:30:36.786Z,11.70
2019-03-22T16:33:05.051Z,10.50
2019-03-22T16:35:33.321Z,10.77
2019-03-22T16:38:01.646Z,10.60
2019-03-22T16:40:29.914Z,13.10
2019-03-22T16:42:58.186Z,13.03
2019-03-22T16:45:35.041Z,10.53
2019-03-22T16:48:03.626Z,12.60
2019-03-22T16:50:31.900Z,14.13
2019-03-22T16:53:00.235Z,9.13
2019-03-22T16:55:28.478Z,11.40
2019-03-22T16:57:57.415Z,10.37
2019-03-22T17:00:25.676Z,11.47
2019-03-22T17:02:53.995Z,13.67
2019-03-22T17:05:22.257Z,9.37
2019-03-22T17:07:50.798Z,9.40
2019-03-22T17:10:19.086Z,10.60
2019-03-22T17:12:47.339Z,9.73
2019-03-22T17:15:15.617Z,9.77
2019-03-22T17:17:43.885Z,12.20
2019-03-22T17:20:12.192Z,8.67
2019-03-22T17:22:40.454Z,10.23
2019-03-22T17:25:08.722Z,9.70
2019-03-22T17:27:37.032Z,8.00
2019-03-22T17:30:06.464Z,10.97
2019-03-22T17:32:34.728Z,10.10
2019-03-22T17:35:03.262Z,8.83
2019-03-22T17:37:31.517Z,11.50
2019-03-22T17:39:59.830Z,9.27
2019-03-22T17:42:28.120Z,8.73
2019-03-22T17:44:56.386Z,9.67
2019-03-22T17:47:24.653Z,11.23
2019-03-22T17:49:52.915Z,9.33
2019-03-22T17:52:21.446Z,11.00
2019-03-22T17:54:49.782Z,9.30
2019-03-22T17:57:18.915Z,9.37
2019-03-22T17:59:47.461Z,8.33
2019-03-22T18:02:15.733Z,9.50
2019-03-22T18:04:44.014Z,9.53
2019-03-22T18:07:12.266Z,9.70
2019-03-22T18:09:40.560Z,10.87
2019-03-22T18:12:08.869Z,8.77
2019-03-22T18:14:37.134Z,8.43
2019-03-22T18:17:05.386Z,8.93
2019-03-22T18:19:33.664Z,15.17
2019-03-22T18:22:01.923Z,9.80
2019-03-22T18:24:30.201Z,11.57
2019-03-22T18:26:58.479Z,8.13
2019-03-22T18:29:27.058Z,8.90
2019-03-22T18:31:55.442Z,7.70
2019-03-22T18:34:33.684Z,12.00
2019-03-22T18:36:53.697Z,9.47
2019-03-22T18:39:21.986Z,9.23
2019-03-22T18:41:50.306Z,9.87
2019-03-22T18:44:18.574Z,8.53
2019-03-22T18:46:46.843Z,8.40
2019-03-22T18:49:15.362Z,8.13
2019-03-22T18:51:43.623Z,7.83
2019-03-22T18:54:11.889Z,9.77
2019-03-22T18:56:40.186Z,8.50
2019-03-22T18:59:08.446Z,7.97
2019-03-22T19:01:36.709Z,8.47
2019-03-22T19:04:05.174Z,9.27
2019-03-22T19:06:33.462Z,8.37
2019-03-22T19:09:01.718Z,9.03
2019-03-22T19:11:29.986Z,8.47
2019-03-22T19:13:58.250Z,9.23
2019-03-22T19:16:26.799Z,9.00
2019-03-22T19:18:55.054Z,9.20
2019-03-22T19:21:23.322Z,7.70
2019-03-22T19:23:51.577Z,8.00
2019-03-22T19:26:19.856Z,8.63
2019-03-22T19:28:48.202Z,7.60
2019-03-22T19:31:16.643Z,8.57
2019-03-22T19:33:44.905Z,9.30
2019-03-22T19:36:13.161Z,8.83
2019-03-22T19:38:41.429Z,8.87
2019-03-22T19:41:09.684Z,8.10
2019-03-22T19:43:37.967Z,7.40
2019-03-22T19:46:06.234Z,8.67
2019-03-22T19:48:34.536Z,7.93
2019-03-22T19:51:02.793Z,7.87
2019-03-22T19:53:31.057Z,7.50
2019-03-22T19:55:59.314Z,7.57
2019-03-22T19:58:27.579Z,7.87
2019-03-22T20:00:55.842Z,9.73
2019-03-22T20:03:24.113Z,8.87
2019-03-22T20:05:52.371Z,7.93
2019-03-22T20:08:20.638Z,7.77
2019-03-22T20:10:48.894Z,7.83
2019-03-22T20:13:17.161Z,7.63
2019-03-22T20:15:45.419Z,7.77
2019-03-22T20:18:13.688Z,6.83
2019-03-22T20:20:41.997Z,7.63
2019-03-22T20:23:10.273Z,7.03
2019-03-22T20:25:38.522Z,8.87
2019-03-22T20:28:06.799Z,7.33
2019-03-22T20:30:35.054Z,7.20
2019-03-22T20:33:03.637Z,8.53
2019-03-22T20:35:31.897Z,7.47
2019-03-22T20:38:00.197Z,7.20
2019-03-22T20:40:28.458Z,7.20
2019-03-22T20:42:56.707Z,7.50
2019-03-22T20:45:24.978Z,6.97
2019-03-22T20:47:54.157Z,7.70
2019-03-22T20:50:22.417Z,7.33
2019-03-22T20:52:50.672Z,7.80
2019-03-22T20:55:18.934Z,7.10
2019-03-22T20:57:47.203Z,7.23
2019-03-22T21:00:16.701Z,7.87
2019-03-22T21:02:44.961Z,7.17
2019-03-22T21:05:13.235Z,7.50
2019-03-22T21:07:41.512Z,7.20
2019-03-22T21:10:10.324Z,7.27
2019-03-22T21:12:38.575Z,7.37
2019-03-22T21:15:08.782Z,7.70
2019-03-22T21:17:37.033Z,7.33
2019-03-22T21:20:09.103Z,6.70
2019-03-22T21:22:37.354Z,6.23
2019-03-22T21:25:06.661Z,6.50
2019-03-22T21:27:34.926Z,7.77
2019-03-22T21:30:05.134Z,6.67
2019-03-22T21:32:33.397Z,6.60
2019-03-22T21:35:01.674Z,6.87
2019-03-22T21:37:29.952Z,7.03
2019-03-22T21:39:58.217Z,8.00
2019-03-22T21:42:26.479Z,6.87
2019-03-22T21:44:54.742Z,6.80
2019-03-22T21:47:22.995Z,5.83
2019-03-22T21:49:51.270Z,6.67
2019-03-22T21:52:19.521Z,6.73
2019-03-22T21:54:47.806Z,6.53
2019-03-22T21:57:16.057Z,7.50
2019-03-22T21:59:44.321Z,7.37
2019-03-22T22:02:12.596Z,6.53
2019-03-22T22:04:40.855Z,6.50
2019-03-22T22:07:09.122Z,5.97
2019-03-22T22:09:37.382Z,7.60
2019-03-22T22:12:05.642Z,6.87
2019-03-22T22:14:40.704Z,6.90
2019-03-22T22:17:04.197Z,6.30
2019-03-22T22:19:32.475Z,6.60
2019-03-22T22:22:00.754Z,6.63
2019-03-22T22:24:29.330Z,6.43
2019-03-22T22:26:57.673Z,6.60
2019-03-22T22:29:26.033Z,6.33
2019-03-22T22:31:54.306Z,6.77
2019-03-22T22:34:22.557Z,7.47
2019-03-22T22:36:50.826Z,6.40
2019-03-22T22:39:19.091Z,6.13
2019-03-22T22:41:47.358Z,6.53
2019-03-22T22:44:15.607Z,6.67
2019-03-22T22:46:43.875Z,5.80
2019-03-22T22:49:12.130Z,6.73
2019-03-22T22:51:40.398Z,5.93
2019-03-22T22:54:08.646Z,6.83
2019-03-22T22:56:36.915Z,6.53
2019-03-22T22:59:05.172Z,6.37
2019-03-22T23:01:33.430Z,6.67
2019-03-22T23:04:01.686Z,5.90
2019-03-22T23:06:29.970Z,6.00
2019-03-22T23:08:58.217Z,6.07
2019-03-22T23:11:26.471Z,5.83
2019-03-22T23:13:54.738Z,6.33
2019-03-22T23:16:23.007Z,6.10
2019-03-22T23:18:51.268Z,5.87
2019-03-22T23:21:19.517Z,6.07
2019-03-22T23:23:47.782Z,6.17
2019-03-22T23:26:16.063Z,6.30
2019-03-22T23:28:44.435Z,6.33
2019-03-22T23:31:12.708Z,6.63
2019-03-22T23:33:40.966Z,6.57
2019-03-22T23:36:19.575Z,6.33
2019-03-22T23:38:39.202Z,5.70
2019-03-22T23:41:07.465Z,5.37
2019-03-22T23:43:35.744Z,5.70
2019-03-22T23:46:04.262Z,6.10
2019-03-22T23:48:32.529Z,6.43
2019-03-22T23:51:00.785Z,5.53
2019-03-22T23:53:29.050Z,6.07
2019-03-22T23:55:57.301Z,6.57
2019-03-22T23:58:25.567Z,5.50
